createdAt,value
2024-02-29T00:00:28.326Z,342.30
2024-02-29T00:01:01.829Z,330.55
2024-02-29T00:01:35.119Z,332.58
2024-02-29T00:02:08.320Z,334.60
2024-02-29T00:02:41.694Z,334.27
2024-02-29T00:03:14.875Z,337.50
2024-02-29T00:03:48.242Z,342.70
2024-02-29T00:04:21.640Z,341.63
2024-02-29T00:04:55.050Z,334.60
2024-02-29T00:05:28.203Z,332.45
2024-02-29T00:06:01.584Z,335.77
2024-02-29T00:06:35.943Z,337.45
2024-02-29T00:07:10.348Z,335.65
2024-02-29T00:07:44.621Z,336.95
2024-02-29T00:08:17.886Z,333.60
2024-02-29T00:08:51.162Z,335.17
2024-02-29T00:09:24.642Z,334.58
2024-02-29T00:09:57.860Z,332.08
2024-02-29T00:10:31.217Z,332.05
2024-02-29T00:11:06.923Z,336.90
2024-02-29T00:11:40.247Z,333.48
2024-02-29T00:12:13.712Z,335.02
2024-02-29T00:12:46.970Z,326.77
2024-02-29T00:13:20.066Z,334.92
2024-02-29T00:13:54.409Z,335.65
2024-02-29T00:14:28.467Z,334.45
2024-02-29T00:15:01.680Z,329.90
2024-02-29T00:15:35.055Z,335.40
2024-02-29T00:16:08.654Z,330.52
2024-02-29T00:16:44.966Z,336.65
2024-02-29T00:17:18.044Z,335.38
2024-02-29T00:17:51.412Z,335.38
2024-02-29T00:18:24.911Z,331.77
2024-02-29T00:18:58.103Z,334.88
2024-02-29T00:19:33.313Z,336.90
2024-02-29T00:20:10.550Z,333.25
2024-02-29T00:20:43.877Z,334.58
2024-02-29T00:21:17.160Z,339.15
2024-02-29T00:21:50.939Z,335.25
2024-02-29T00:22:24.253Z,335.15
2024-02-29T00:22:57.740Z,333.25
2024-02-29T00:23:31.090Z,333.98
2024-02-29T00:24:04.819Z,338.48
2024-02-29T00:24:38.395Z,336.33
2024-02-29T00:25:13.440Z,334.38
2024-02-29T00:25:46.667Z,336.38
2024-02-29T00:26:20.045Z,337.48
2024-02-29T00:26:53.137Z,332.05
2024-02-29T00:27:27.328Z,341.33
2024-02-29T00:28:00.351Z,341.65
2024-02-29T00:28:33.584Z,336.60
2024-02-29T00:29:07.374Z,342.95
2024-02-29T00:29:40.587Z,340.02
2024-02-29T00:30:14.036Z,342.88
2024-02-29T00:30:48.878Z,345.00
2024-02-29T00:31:22.955Z,342.80
2024-02-29T00:32:02.542Z,340.88
2024-02-29T00:32:36.795Z,343.67
2024-02-29T00:33:10.135Z,337.75
2024-02-29T00:33:43.556Z,340.33
2024-02-29T00:34:16.918Z,336.73
2024-02-29T00:34:50.830Z,333.63
2024-02-29T00:35:24.604Z,336.23
2024-02-29T00:36:08.869Z,339.23
2024-02-29T00:36:43.593Z,343.50
2024-02-29T00:37:17.183Z,340.38
2024-02-29T00:37:51.161Z,344.08
2024-02-29T00:38:24.433Z,337.77
2024-02-29T00:39:05.984Z,342.30
2024-02-29T00:39:45.233Z,346.15
2024-02-29T00:40:18.576Z,342.08
2024-02-29T00:40:51.687Z,346.42
2024-02-29T00:41:24.964Z,342.60
2024-02-29T00:41:58.275Z,339.50
2024-02-29T00:42:31.644Z,350.65
2024-02-29T00:43:05.635Z,338.55
2024-02-29T00:43:39.827Z,340.13
2024-02-29T00:44:13.000Z,344.52
2024-02-29T00:44:46.515Z,336.15
2024-02-29T00:45:20.487Z,348.27
2024-02-29T00:45:53.926Z,337.90
2024-02-29T00:46:27.245Z,335.42
2024-02-29T00:47:01.159Z,334.30
2024-02-29T00:47:34.459Z,341.50
2024-02-29T00:48:08.064Z,345.00
2024-02-29T00:48:41.477Z,341.77
2024-02-29T00:49:18.011Z,341.52
2024-02-29T00:49:51.433Z,350.35
2024-02-29T00:50:24.823Z,338.90
2024-02-29T00:50:57.894Z,345.45
2024-02-29T00:51:31.123Z,342.90
2024-02-29T00:52:04.693Z,343.05
2024-02-29T00:52:39.589Z,347.35
2024-02-29T00:53:12.855Z,341.48
2024-02-29T00:53:46.135Z,344.60
2024-02-29T00:54:19.447Z,344.77
2024-02-29T00:54:52.923Z,342.95
2024-02-29T00:55:26.286Z,342.27
2024-02-29T00:55:59.564Z,342.70
2024-02-29T00:56:32.985Z,339.52
2024-02-29T00:57:06.428Z,344.90
2024-02-29T00:57:39.967Z,347.65
2024-02-29T00:58:13.467Z,346.10
2024-02-29T00:58:46.903Z,347.45
2024-02-29T00:59:20.069Z,340.38
2024-02-29T00:59:53.247Z,346.08
2024-02-29T01:00:28.063Z,342.25
2024-02-29T01:01:01.926Z,347.73
2024-02-29T01:01:35.303Z,346.42
2024-02-29T01:02:08.616Z,345.52
2024-02-29T01:02:41.793Z,339.23
2024-02-29T01:03:15.591Z,343.48
2024-02-29T01:03:48.830Z,343.38
2024-02-29T01:04:22.255Z,346.30
2024-02-29T01:04:55.938Z,341.50
2024-02-29T01:05:29.228Z,351.00
2024-02-29T01:06:02.602Z,348.83
2024-02-29T01:06:36.033Z,342.98
2024-02-29T01:07:09.507Z,341.52
2024-02-29T01:07:42.859Z,339.38
2024-02-29T01:08:16.659Z,341.60
2024-02-29T01:08:51.471Z,343.40
2024-02-29T01:09:29.014Z,343.08
2024-02-29T01:10:03.257Z,349.90
2024-02-29T01:10:36.627Z,349.38
2024-02-29T01:11:09.729Z,346.17
2024-02-29T01:11:43.182Z,349.08
2024-02-29T01:12:16.465Z,344.75
2024-02-29T01:12:49.769Z,348.50
2024-02-29T01:13:23.031Z,343.52
2024-02-29T01:13:56.308Z,350.08
2024-02-29T01:14:29.480Z,351.35
2024-02-29T01:15:02.571Z,350.63
2024-02-29T01:15:36.587Z,345.70
2024-02-29T01:16:10.134Z,345.45
2024-02-29T01:16:43.428Z,343.88
2024-02-29T01:17:16.604Z,345.73
2024-02-29T01:17:52.002Z,349.65
2024-02-29T01:18:25.520Z,342.42
2024-02-29T01:18:59.585Z,345.00
2024-02-29T01:19:33.107Z,344.25
2024-02-29T01:20:06.685Z,342.92
2024-02-29T01:20:39.967Z,346.02
2024-02-29T01:21:13.350Z,351.45
2024-02-29T01:21:46.787Z,345.85
2024-02-29T01:22:20.266Z,341.70
2024-02-29T01:22:53.404Z,353.73
2024-02-29T01:23:26.799Z,345.70
2024-02-29T01:23:59.974Z,341.63
2024-02-29T01:24:33.096Z,348.55
2024-02-29T01:25:06.945Z,346.27
2024-02-29T01:25:40.412Z,343.70
2024-02-29T01:26:13.694Z,351.52
2024-02-29T01:26:46.872Z,346.90
2024-02-29T01:27:20.150Z,348.02
2024-02-29T01:27:53.606Z,350.17
2024-02-29T01:28:26.921Z,352.65
2024-02-29T01:29:00.092Z,350.98
2024-02-29T01:29:33.274Z,348.67
2024-02-29T01:30:07.169Z,348.48
2024-02-29T01:30:40.473Z,344.92
2024-02-29T01:31:13.768Z,350.27
2024-02-29T01:31:47.055Z,348.48
2024-02-29T01:32:26.405Z,352.33
2024-02-29T01:33:01.369Z,370.38
2024-02-29T01:33:34.986Z,366.80
2024-02-29T01:34:08.246Z,367.75
2024-02-29T01:34:41.728Z,368.73
2024-02-29T01:35:16.636Z,369.15
2024-02-29T01:35:49.813Z,369.15
2024-02-29T01:36:22.977Z,360.90
2024-02-29T01:36:56.322Z,363.20
2024-02-29T01:37:29.740Z,361.30
2024-02-29T01:38:03.753Z,369.33
2024-02-29T01:38:37.024Z,369.33
2024-02-29T01:39:10.526Z,364.52
2024-02-29T01:39:44.015Z,370.55
2024-02-29T01:40:20.040Z,366.27
2024-02-29T01:40:53.725Z,372.83
2024-02-29T01:41:27.100Z,372.80
2024-02-29T01:42:00.286Z,373.08
2024-02-29T01:42:33.733Z,371.25
2024-02-29T01:43:07.108Z,370.08
2024-02-29T01:43:50.464Z,362.20
2024-02-29T01:44:24.062Z,371.17
2024-02-29T01:44:57.853Z,372.70
2024-02-29T01:45:31.134Z,371.77
2024-02-29T01:46:07.229Z,369.30
2024-02-29T01:46:40.982Z,372.17
2024-02-29T01:47:14.762Z,365.05
2024-02-29T01:47:48.170Z,369.20
2024-02-29T01:48:21.426Z,369.20
2024-02-29T01:48:55.657Z,369.40
2024-02-29T01:49:29.520Z,371.90
2024-02-29T01:50:06.585Z,367.88
2024-02-29T01:50:40.070Z,364.98
2024-02-29T01:51:13.454Z,368.10
2024-02-29T01:51:46.990Z,369.25
2024-02-29T01:52:21.776Z,365.90
2024-02-29T01:52:54.940Z,367.60
2024-02-29T01:53:28.214Z,361.05
2024-02-29T01:54:01.605Z,371.40
2024-02-29T01:54:34.896Z,367.67
2024-02-29T01:55:08.640Z,369.98
2024-02-29T01:55:41.963Z,361.13
2024-02-29T01:56:15.434Z,363.63
2024-02-29T01:56:48.713Z,367.88
2024-02-29T01:57:22.213Z,363.48
2024-02-29T01:57:55.741Z,348.75
2024-02-29T01:58:29.164Z,349.45
2024-02-29T01:59:02.961Z,353.38
2024-02-29T01:59:37.376Z,354.15
2024-02-29T02:00:10.847Z,359.58
2024-02-29T02:00:45.344Z,357.35
2024-02-29T02:01:19.078Z,355.38
2024-02-29T02:01:52.712Z,351.88
2024-02-29T02:02:26.016Z,356.73
2024-02-29T02:02:59.296Z,353.17
2024-02-29T02:03:32.622Z,346.65
2024-02-29T02:04:06.200Z,357.15
2024-02-29T02:04:40.470Z,359.13
2024-02-29T02:05:13.795Z,360.65
2024-02-29T02:05:47.193Z,359.25
2024-02-29T02:06:20.617Z,357.17
2024-02-29T02:06:53.822Z,357.15
2024-02-29T02:07:27.696Z,356.48
2024-02-29T02:08:01.179Z,358.10
2024-02-29T02:08:34.876Z,361.73
2024-02-29T02:09:08.202Z,348.75
2024-02-29T02:09:44.104Z,355.92
2024-02-29T02:10:18.136Z,357.48
2024-02-29T02:10:51.910Z,358.02
2024-02-29T02:11:25.190Z,358.23
2024-02-29T02:11:58.539Z,363.70
2024-02-29T02:12:31.665Z,360.02
2024-02-29T02:13:05.174Z,361.88
2024-02-29T02:13:38.582Z,363.80
2024-02-29T02:14:11.867Z,355.80
2024-02-29T02:14:44.949Z,363.73
2024-02-29T02:15:18.226Z,357.77
2024-02-29T02:15:53.375Z,363.20
2024-02-29T02:16:26.734Z,365.95
2024-02-29T02:16:59.933Z,358.92
2024-02-29T02:17:33.971Z,358.70
2024-02-29T02:18:07.439Z,359.38
2024-02-29T02:18:40.803Z,362.15
2024-02-29T02:19:14.578Z,363.63
2024-02-29T02:19:48.248Z,365.50
2024-02-29T02:20:22.377Z,361.13
2024-02-29T02:20:58.514Z,370.00
2024-02-29T02:21:32.700Z,364.15
2024-02-29T02:22:06.746Z,363.40
2024-02-29T02:22:40.180Z,362.08
2024-02-29T02:23:13.361Z,362.65
2024-02-29T02:23:46.844Z,362.15
2024-02-29T02:24:22.490Z,361.30
2024-02-29T02:24:55.813Z,360.30
2024-02-29T02:25:29.248Z,360.70
2024-02-29T02:26:02.443Z,357.45
2024-02-29T02:26:35.909Z,362.55
2024-02-29T02:27:09.085Z,359.30
2024-02-29T02:27:42.443Z,352.65
2024-02-29T02:28:16.012Z,355.55
2024-02-29T02:28:49.543Z,360.38
2024-02-29T02:29:22.622Z,362.67
2024-02-29T02:29:55.897Z,362.20
2024-02-29T02:30:29.085Z,366.13
2024-02-29T02:31:02.327Z,370.23
2024-02-29T02:31:36.351Z,368.35
2024-02-29T02:32:09.534Z,369.27
2024-02-29T02:32:42.813Z,364.35
2024-02-29T02:33:16.153Z,371.25
2024-02-29T02:33:49.445Z,358.27
2024-02-29T02:34:22.749Z,366.40
2024-02-29T02:34:56.033Z,361.90
2024-02-29T02:35:29.107Z,366.92
2024-02-29T02:36:02.391Z,362.88
2024-02-29T02:36:36.101Z,364.90
2024-02-29T02:37:09.528Z,356.67
2024-02-29T02:37:42.641Z,358.52
2024-02-29T02:38:15.917Z,359.98
2024-02-29T02:38:49.100Z,356.90
2024-02-29T02:39:22.481Z,356.55
2024-02-29T02:39:55.804Z,360.40
2024-02-29T02:40:30.471Z,349.52
2024-02-29T02:41:03.655Z,355.15
2024-02-29T02:41:36.930Z,357.70
2024-02-29T02:42:10.319Z,356.30
2024-02-29T02:42:43.507Z,351.83
2024-02-29T02:43:16.701Z,357.08
2024-02-29T02:43:53.335Z,352.33
2024-02-29T02:44:26.815Z,352.30
2024-02-29T02:44:59.988Z,355.35
2024-02-29T02:45:33.482Z,354.10
2024-02-29T02:46:06.645Z,349.42
2024-02-29T02:46:40.029Z,358.60
2024-02-29T02:47:13.421Z,356.08
2024-02-29T02:47:46.640Z,357.02
2024-02-29T02:48:22.131Z,350.90
2024-02-29T02:48:55.212Z,357.52
2024-02-29T02:49:28.583Z,354.55
2024-02-29T02:50:03.407Z,359.45
2024-02-29T02:50:36.735Z,351.42
2024-02-29T02:51:09.966Z,357.98
2024-02-29T02:51:43.177Z,347.23
2024-02-29T02:52:16.680Z,355.00
2024-02-29T02:52:49.907Z,355.30
2024-02-29T02:53:23.085Z,354.25
2024-02-29T02:53:56.677Z,352.10
2024-02-29T02:54:30.280Z,353.50
2024-02-29T02:55:03.689Z,358.92
2024-02-29T02:55:36.820Z,348.70
2024-02-29T02:56:09.994Z,348.77
2024-02-29T02:56:43.181Z,350.08
2024-02-29T02:57:16.468Z,349.02
2024-02-29T02:57:49.972Z,358.27
2024-02-29T02:58:23.215Z,356.25
2024-02-29T02:58:56.403Z,356.70
2024-02-29T02:59:30.596Z,353.38
2024-02-29T03:00:05.616Z,355.48
2024-02-29T03:00:39.077Z,354.80
2024-02-29T03:01:15.212Z,361.08
2024-02-29T03:01:50.833Z,358.90
2024-02-29T03:02:24.596Z,356.00
2024-02-29T03:02:57.655Z,360.30
2024-02-29T03:03:31.073Z,362.23
2024-02-29T03:04:05.602Z,354.85
2024-02-29T03:04:38.935Z,352.23
2024-02-29T03:05:14.048Z,347.15
2024-02-29T03:05:47.335Z,348.13
2024-02-29T03:06:20.713Z,356.05
2024-02-29T03:06:54.001Z,355.02
2024-02-29T03:07:27.585Z,346.08
2024-02-29T03:08:00.958Z,351.15
2024-02-29T03:08:34.453Z,350.63
2024-02-29T03:09:09.466Z,349.27
2024-02-29T03:09:42.759Z,352.30
2024-02-29T03:10:16.080Z,351.05
2024-02-29T03:10:49.657Z,348.80
2024-02-29T03:11:22.724Z,348.08
2024-02-29T03:11:56.483Z,351.23
2024-02-29T03:12:29.668Z,351.10
2024-02-29T03:13:03.009Z,344.83
2024-02-29T03:13:37.862Z,353.83
2024-02-29T03:14:11.038Z,346.17
2024-02-29T03:14:44.843Z,350.80
2024-02-29T03:15:18.318Z,346.33
2024-02-29T03:15:51.647Z,351.13
2024-02-29T03:16:25.244Z,346.05
2024-02-29T03:16:58.665Z,348.55
2024-02-29T03:17:31.870Z,342.92
2024-02-29T03:18:08.674Z,341.30
2024-02-29T03:18:42.112Z,341.10
2024-02-29T03:19:15.379Z,344.23
2024-02-29T03:19:49.883Z,346.55
2024-02-29T03:20:23.671Z,343.20
2024-02-29T03:20:56.781Z,344.23
2024-02-29T03:21:29.934Z,349.50
2024-02-29T03:22:03.172Z,344.52
2024-02-29T03:22:36.389Z,343.17
2024-02-29T03:23:09.676Z,343.80
2024-02-29T03:23:44.586Z,353.88
2024-02-29T03:24:17.766Z,344.17
2024-02-29T03:24:50.995Z,359.08
2024-02-29T03:25:24.219Z,353.83
2024-02-29T03:25:57.420Z,353.23
2024-02-29T03:26:31.500Z,353.60
2024-02-29T03:27:04.677Z,344.85
2024-02-29T03:27:38.319Z,349.23
2024-02-29T03:28:11.898Z,348.58
2024-02-29T03:28:45.338Z,353.80
2024-02-29T03:29:19.435Z,347.95
2024-02-29T03:29:53.327Z,346.88
2024-02-29T03:30:26.765Z,347.25
2024-02-29T03:31:01.609Z,352.80
2024-02-29T03:31:35.623Z,357.58
2024-02-29T03:32:09.024Z,354.05
2024-02-29T03:32:42.305Z,348.10
2024-02-29T03:33:15.783Z,353.23
2024-02-29T03:33:49.153Z,352.45
2024-02-29T03:34:22.475Z,350.67
2024-02-29T03:34:55.929Z,349.58
2024-02-29T03:35:29.110Z,344.25
2024-02-29T03:36:02.274Z,351.20
2024-02-29T03:36:35.587Z,350.60
2024-02-29T03:37:09.684Z,350.40
2024-02-29T03:37:43.148Z,352.50
2024-02-29T03:38:16.941Z,353.55
2024-02-29T03:38:51.132Z,347.55
2024-02-29T03:39:24.319Z,344.15
2024-02-29T03:39:57.524Z,340.50
2024-02-29T03:40:30.974Z,347.67
2024-02-29T03:41:04.155Z,339.00
2024-02-29T03:41:37.537Z,341.40
2024-02-29T03:42:11.336Z,351.35
2024-02-29T03:42:44.807Z,348.02
2024-02-29T03:43:18.218Z,343.42
2024-02-29T03:43:51.377Z,339.77
2024-02-29T03:44:25.474Z,340.30
2024-02-29T03:44:59.061Z,346.15
2024-02-29T03:45:32.573Z,343.33
2024-02-29T03:46:06.097Z,344.35
2024-02-29T03:46:39.314Z,344.75
2024-02-29T03:47:12.598Z,339.60
2024-02-29T03:47:46.023Z,339.77
2024-02-29T03:48:19.463Z,345.77
2024-02-29T03:48:52.775Z,342.40
2024-02-29T03:49:25.823Z,343.65
2024-02-29T03:49:59.301Z,332.33
2024-02-29T03:50:32.588Z,341.85
2024-02-29T03:51:05.863Z,336.55
2024-02-29T03:51:39.969Z,334.98
2024-02-29T03:52:13.432Z,333.95
2024-02-29T03:52:46.740Z,337.02
2024-02-29T03:53:20.313Z,340.88
2024-02-29T03:53:53.697Z,336.55
2024-02-29T03:54:26.887Z,340.38
2024-02-29T03:55:00.283Z,339.75
2024-02-29T03:55:33.760Z,334.20
2024-02-29T03:56:08.286Z,339.95
2024-02-29T03:56:41.533Z,342.35
2024-02-29T03:57:15.022Z,341.35
2024-02-29T03:57:48.934Z,340.92
2024-02-29T03:58:23.189Z,341.10
2024-02-29T03:58:56.757Z,343.77
2024-02-29T03:59:30.200Z,338.83
2024-02-29T04:00:04.190Z,339.92
2024-02-29T04:00:37.222Z,341.35
2024-02-29T04:01:12.333Z,337.83
2024-02-29T04:01:49.489Z,346.70
2024-02-29T04:02:24.174Z,350.98
2024-02-29T04:02:57.751Z,353.52
2024-02-29T04:03:31.470Z,342.65
2024-02-29T04:04:05.263Z,343.63
2024-02-29T04:04:39.151Z,344.63
2024-02-29T04:05:12.622Z,345.50
2024-02-29T04:05:45.795Z,342.38
2024-02-29T04:06:18.976Z,343.08
2024-02-29T04:06:52.232Z,343.45
2024-02-29T04:07:25.626Z,346.48
2024-02-29T04:08:12.762Z,338.75
2024-02-29T04:08:46.745Z,355.92
2024-02-29T04:09:20.110Z,349.58
2024-02-29T04:09:56.283Z,348.88
2024-02-29T04:10:29.545Z,335.75
2024-02-29T04:11:03.976Z,348.50
2024-02-29T04:11:39.992Z,344.33
2024-02-29T04:12:13.175Z,342.75
2024-02-29T04:12:46.383Z,343.98
2024-02-29T04:13:19.921Z,342.10
2024-02-29T04:13:54.851Z,348.05
2024-02-29T04:14:28.950Z,347.67
2024-02-29T04:15:04.694Z,343.10
2024-02-29T04:15:37.796Z,345.83
2024-02-29T04:16:11.201Z,346.77
2024-02-29T04:16:44.327Z,348.27
2024-02-29T04:17:17.608Z,342.42
2024-02-29T04:17:50.902Z,353.45
2024-02-29T04:18:24.577Z,345.33
2024-02-29T04:18:57.696Z,348.65
2024-02-29T04:19:31.033Z,350.80
2024-02-29T04:20:04.631Z,339.45
2024-02-29T04:20:37.800Z,343.98
2024-02-29T04:21:11.110Z,354.67
2024-02-29T04:21:47.982Z,355.42
2024-02-29T04:22:21.381Z,352.45
2024-02-29T04:22:54.509Z,349.98
2024-02-29T04:23:27.888Z,347.67
2024-02-29T04:24:01.813Z,348.48
2024-02-29T04:24:35.218Z,343.13
2024-02-29T04:25:12.293Z,352.48
2024-02-29T04:25:46.778Z,358.40
2024-02-29T04:26:20.228Z,355.38
2024-02-29T04:26:53.607Z,350.92
2024-02-29T04:27:26.688Z,355.05
2024-02-29T04:28:00.082Z,352.80
2024-02-29T04:28:34.691Z,359.73
2024-02-29T04:29:07.967Z,354.70
2024-02-29T04:29:41.141Z,357.40
2024-02-29T04:30:14.414Z,363.35
2024-02-29T04:30:47.687Z,361.27
2024-02-29T04:31:22.477Z,356.48
2024-02-29T04:31:55.805Z,357.95
2024-02-29T04:32:29.080Z,361.08
2024-02-29T04:33:02.270Z,363.27
2024-02-29T04:33:35.612Z,363.10
2024-02-29T04:34:09.081Z,358.05
2024-02-29T04:34:43.216Z,360.95
2024-02-29T04:35:16.699Z,355.38
2024-02-29T04:35:49.884Z,366.67
2024-02-29T04:36:23.366Z,359.70
2024-02-29T04:36:57.090Z,364.08
2024-02-29T04:37:30.434Z,364.13
2024-02-29T04:38:03.636Z,358.17
2024-02-29T04:38:36.892Z,359.20
2024-02-29T04:39:10.071Z,356.25
2024-02-29T04:39:43.470Z,358.08
2024-02-29T04:40:16.991Z,357.85
2024-02-29T04:40:50.117Z,360.05
2024-02-29T04:41:23.399Z,360.05
2024-02-29T04:41:56.574Z,357.48
2024-02-29T04:42:29.855Z,357.98
2024-02-29T04:43:03.280Z,357.30
2024-02-29T04:43:36.619Z,364.52
2024-02-29T04:44:09.802Z,364.27
2024-02-29T04:44:43.082Z,368.40
2024-02-29T04:45:16.264Z,361.83
2024-02-29T04:45:49.827Z,361.08
2024-02-29T04:46:23.225Z,359.13
2024-02-29T04:46:56.415Z,360.40
2024-02-29T04:47:29.957Z,362.05
2024-02-29T04:48:03.231Z,360.02
2024-02-29T04:48:36.623Z,363.48
2024-02-29T04:49:10.010Z,364.45
2024-02-29T04:49:43.232Z,358.95
2024-02-29T04:50:16.599Z,360.13
2024-02-29T04:50:50.086Z,370.00
2024-02-29T04:51:23.269Z,361.30
2024-02-29T04:51:56.485Z,359.13
2024-02-29T04:52:29.926Z,358.38
2024-02-29T04:53:03.023Z,359.05
2024-02-29T04:53:36.279Z,353.27
2024-02-29T04:54:09.559Z,356.65
2024-02-29T04:54:42.854Z,353.27
2024-02-29T04:55:16.326Z,353.08
2024-02-29T04:55:49.605Z,354.45
2024-02-29T04:56:22.781Z,353.42
2024-02-29T04:56:55.965Z,356.00
2024-02-29T04:57:29.241Z,351.30
2024-02-29T04:58:02.436Z,351.02
2024-02-29T04:58:35.695Z,344.55
2024-02-29T04:59:09.387Z,339.88
2024-02-29T04:59:42.669Z,342.17
2024-02-29T05:00:16.807Z,338.20
2024-02-29T05:00:50.329Z,342.05
2024-02-29T05:01:23.907Z,347.70
2024-02-29T05:01:57.540Z,348.45
2024-02-29T05:02:30.914Z,343.02
2024-02-29T05:03:04.517Z,357.20
2024-02-29T05:03:37.704Z,363.90
2024-02-29T05:04:11.261Z,341.45
2024-02-29T05:04:44.749Z,350.10
2024-02-29T05:05:17.948Z,348.17
2024-02-29T05:05:51.924Z,352.10
2024-02-29T05:06:24.903Z,341.45
2024-02-29T05:06:58.346Z,342.52
2024-02-29T05:07:32.481Z,347.73
2024-02-29T05:08:05.967Z,344.05
2024-02-29T05:08:39.359Z,347.75
2024-02-29T05:09:13.258Z,349.20
2024-02-29T05:09:46.565Z,345.50
2024-02-29T05:10:20.224Z,348.50
2024-02-29T05:10:56.184Z,346.42
2024-02-29T05:11:30.879Z,359.77
2024-02-29T05:12:04.161Z,353.60
2024-02-29T05:12:37.801Z,350.95
2024-02-29T05:13:11.084Z,350.38
2024-02-29T05:13:44.506Z,355.30
2024-02-29T05:14:17.989Z,355.85
2024-02-29T05:14:51.371Z,356.13
2024-02-29T05:15:24.977Z,356.50
2024-02-29T05:15:58.370Z,361.02
2024-02-29T05:16:31.622Z,355.27
2024-02-29T05:17:05.015Z,357.13
2024-02-29T05:17:39.275Z,358.33
2024-02-29T05:18:12.664Z,356.08
2024-02-29T05:18:46.172Z,359.98
2024-02-29T05:19:19.666Z,356.63
2024-02-29T05:19:53.973Z,357.05
2024-02-29T05:20:29.297Z,358.85
2024-02-29T05:21:02.678Z,359.60
2024-02-29T05:21:35.888Z,361.80
2024-02-29T05:22:09.385Z,350.63
2024-02-29T05:22:43.029Z,355.75
2024-02-29T05:23:16.204Z,353.08
2024-02-29T05:23:49.689Z,355.67
2024-02-29T05:24:23.082Z,349.98
2024-02-29T05:24:57.736Z,351.02
2024-02-29T05:25:30.965Z,350.95
2024-02-29T05:26:06.708Z,351.13
2024-02-29T05:26:39.995Z,354.60
2024-02-29T05:27:13.169Z,376.55
2024-02-29T05:27:46.346Z,360.48
2024-02-29T05:28:19.794Z,359.67
2024-02-29T05:28:55.271Z,360.70
2024-02-29T05:29:30.378Z,351.42
2024-02-29T05:30:04.168Z,359.35
2024-02-29T05:30:37.394Z,353.13
2024-02-29T05:31:11.188Z,351.90
2024-02-29T05:31:50.263Z,357.17
2024-02-29T05:32:23.534Z,351.13
2024-02-29T05:32:56.891Z,357.08
2024-02-29T05:33:30.298Z,353.60
2024-02-29T05:34:03.713Z,335.98
2024-02-29T05:34:36.969Z,335.58
2024-02-29T05:35:10.456Z,338.77
2024-02-29T05:35:43.734Z,332.13
2024-02-29T05:36:17.111Z,332.95
2024-02-29T05:36:50.334Z,336.27
2024-02-29T05:37:23.754Z,333.15
2024-02-29T05:37:59.506Z,335.48
2024-02-29T05:38:32.922Z,335.80
2024-02-29T05:39:06.996Z,326.55
2024-02-29T05:39:40.289Z,329.25
2024-02-29T05:40:14.684Z,325.00
2024-02-29T05:40:48.931Z,327.38
2024-02-29T05:41:22.279Z,326.25
2024-02-29T05:41:57.697Z,328.52
2024-02-29T05:42:30.876Z,327.25
2024-02-29T05:43:05.299Z,325.05
2024-02-29T05:43:38.669Z,324.80
2024-02-29T05:44:11.948Z,325.15
2024-02-29T05:44:47.067Z,334.55
2024-02-29T05:45:20.451Z,326.88
2024-02-29T05:45:53.917Z,326.92
2024-02-29T05:46:27.218Z,331.42
2024-02-29T05:47:00.600Z,328.58
2024-02-29T05:47:33.811Z,331.15
2024-02-29T05:48:07.219Z,323.92
2024-02-29T05:48:41.212Z,327.17
2024-02-29T05:49:14.825Z,331.65
2024-02-29T05:49:48.239Z,335.02
2024-02-29T05:50:21.512Z,324.38
2024-02-29T05:50:54.587Z,334.70
2024-02-29T05:51:27.961Z,331.75
2024-02-29T05:52:01.113Z,336.38
2024-02-29T05:52:34.424Z,336.63
2024-02-29T05:53:07.706Z,335.08
2024-02-29T05:53:40.991Z,329.77
2024-02-29T05:54:14.265Z,331.88
2024-02-29T05:54:47.484Z,331.63
2024-02-29T05:55:20.869Z,336.38
2024-02-29T05:56:02.324Z,334.88
2024-02-29T05:56:37.950Z,335.77
2024-02-29T05:57:11.318Z,340.00
2024-02-29T05:57:44.420Z,335.88
2024-02-29T05:58:19.968Z,336.38
2024-02-29T05:58:54.435Z,335.27
2024-02-29T05:59:27.816Z,332.73
2024-02-29T06:00:02.223Z,331.75
2024-02-29T06:00:43.677Z,337.90
2024-02-29T06:01:17.286Z,335.70
2024-02-29T06:01:51.082Z,337.08
2024-02-29T06:02:24.456Z,336.13
2024-02-29T06:02:58.456Z,334.60
2024-02-29T06:03:31.737Z,329.42
2024-02-29T06:04:05.115Z,331.40
2024-02-29T06:04:40.611Z,327.77
2024-02-29T06:05:14.036Z,328.55
2024-02-29T06:05:47.317Z,336.42
2024-02-29T06:06:20.693Z,328.42
2024-02-29T06:06:53.924Z,331.30
2024-02-29T06:07:27.485Z,331.42
2024-02-29T06:08:00.840Z,337.65
2024-02-29T06:08:34.126Z,329.08
2024-02-29T06:09:07.603Z,331.40
2024-02-29T06:09:43.078Z,336.85
2024-02-29T06:10:16.428Z,327.45
2024-02-29T06:10:50.707Z,331.02
2024-02-29T06:11:23.983Z,328.40
2024-02-29T06:11:57.385Z,334.17
2024-02-29T06:12:32.208Z,331.90
2024-02-29T06:13:05.820Z,332.67
2024-02-29T06:13:41.029Z,331.17
2024-02-29T06:14:14.442Z,324.52
2024-02-29T06:14:49.126Z,328.80
2024-02-29T06:15:22.288Z,331.75
2024-02-29T06:15:55.531Z,331.05
2024-02-29T06:16:29.262Z,328.42
2024-02-29T06:17:04.074Z,328.92
2024-02-29T06:17:37.272Z,337.02
2024-02-29T06:18:11.940Z,333.15
2024-02-29T06:18:48.240Z,330.15
2024-02-29T06:19:21.741Z,336.50
2024-02-29T06:19:55.087Z,337.52
2024-02-29T06:20:28.470Z,333.38
2024-02-29T06:21:01.646Z,331.17
2024-02-29T06:21:34.973Z,329.45
2024-02-29T06:22:08.606Z,330.75
2024-02-29T06:22:42.315Z,332.48
2024-02-29T06:23:15.493Z,330.40
2024-02-29T06:23:49.581Z,322.75
2024-02-29T06:24:22.759Z,320.15
2024-02-29T06:24:56.165Z,319.92
2024-02-29T06:25:29.521Z,317.48
2024-02-29T06:26:02.912Z,317.48
2024-02-29T06:26:36.800Z,319.27
2024-02-29T06:27:10.907Z,322.33
2024-02-29T06:27:44.202Z,317.95
2024-02-29T06:28:21.926Z,317.10
2024-02-29T06:28:57.213Z,324.30
2024-02-29T06:29:30.474Z,324.45
2024-02-29T06:30:05.815Z,322.75
2024-02-29T06:30:39.121Z,326.52
2024-02-29T06:31:12.423Z,324.02
2024-02-29T06:31:45.645Z,325.25
2024-02-29T06:32:19.025Z,325.80
2024-02-29T06:32:52.359Z,330.88
2024-02-29T06:33:26.980Z,324.40
2024-02-29T06:34:00.130Z,329.25
2024-02-29T06:34:33.679Z,327.95
2024-02-29T06:35:06.965Z,324.67
2024-02-29T06:35:40.350Z,321.73
2024-02-29T06:36:13.519Z,326.25
2024-02-29T06:36:47.352Z,327.92
2024-02-29T06:37:20.754Z,327.35
2024-02-29T06:37:54.128Z,328.00
2024-02-29T06:38:27.318Z,330.85
2024-02-29T06:39:00.535Z,325.17
2024-02-29T06:39:34.295Z,333.00
2024-02-29T06:40:13.182Z,330.10
2024-02-29T06:40:47.484Z,335.75
2024-02-29T06:41:20.624Z,330.10
2024-02-29T06:41:54.021Z,333.02
2024-02-29T06:42:27.493Z,335.30
2024-02-29T06:43:01.240Z,337.17
2024-02-29T06:43:34.493Z,340.48
2024-02-29T06:44:08.867Z,346.67
2024-02-29T06:44:42.250Z,332.02
2024-02-29T06:45:15.555Z,332.20
2024-02-29T06:45:49.799Z,332.00
2024-02-29T06:46:23.360Z,338.00
2024-02-29T06:46:56.804Z,337.77
2024-02-29T06:47:30.016Z,330.25
2024-02-29T06:48:03.317Z,329.65
2024-02-29T06:48:38.311Z,334.05
2024-02-29T06:49:11.821Z,330.58
2024-02-29T06:49:44.945Z,335.05
2024-02-29T06:50:18.223Z,326.77
2024-02-29T06:50:51.400Z,329.42
2024-02-29T06:51:24.989Z,332.65
2024-02-29T06:51:58.446Z,332.80
2024-02-29T06:52:31.757Z,330.10
2024-02-29T06:53:05.340Z,331.58
2024-02-29T06:53:38.521Z,333.02
2024-02-29T06:54:11.702Z,332.77
2024-02-29T06:54:45.853Z,321.33
2024-02-29T06:55:19.842Z,328.15
2024-02-29T06:55:53.391Z,327.02
2024-02-29T06:56:26.562Z,330.40
2024-02-29T06:57:00.264Z,325.80
2024-02-29T06:57:33.465Z,326.75
2024-02-29T06:58:07.163Z,324.50
2024-02-29T06:58:40.523Z,327.90
2024-02-29T06:59:16.034Z,327.60
2024-02-29T06:59:51.876Z,322.88
2024-02-29T07:00:27.816Z,331.63
2024-02-29T07:01:02.002Z,327.80
2024-02-29T07:01:35.956Z,324.40